Red Bluff Municipal Airport
KRBL : now visible

Airfield :











YOU CAN JOIN US ON...

 
LOGIN :

Register | Disclaimer

   EN    FR    IT 

 









Legend :    VFR   Marginal VFR   IFR   Intensive IFR   Very Intensive IFR
Visi :
Ceiling :
>= 8 km
>= 3000ft
5 to 8 km
1000 to 3000 ft
1500m to 5 km
500 to 1000 ft
800 to 1500m
200 to 500 ft
< 800m
< 200 ft
Symbols :   Thunderstorms  Fog  Heavy snow  Heavy precipitations  Wind > 20 kt






- Airport Elevation : 352 ft


KRBL - Red Bluff Municipal

CURRENT METAR :
  • 180954Z AUTO 27006KT 10SM CLR 28/12 A2986 RMK AO2 SLP106 T02780117

EXPIRED METARs :
  • 180930Z AUTO 00000KT 10SM CLR 28/12 A2987 RMK AO2 T02830122
  • 180915Z AUTO 00000KT 10SM VCTS CLR 28/12 A2986 RMK AO2 T02830122
  • 180854Z AUTO 00000KT 10SM CLR 29/12 A2986 RMK AO2 SLP106 T02940117 51008
  • 180754Z AUTO 31003KT 10SM CLR 29/12 A2986 RMK AO2 SLP104 T02890122 404110222

TAF KRBL
Valid from the 18 at 06:00 until the 19 at 06:00 UTC


180520Z 1806/1906 VRB04KT P6SM BKN150
FM182100 15009KT P6SM SCT150
FM190500 VRB04KT P6SM SKC
KZOA FIR / North America



MET'MAP, your aeronautical weather chart ! - Copyright ORBIFLY December 2007 - Disclaimer

ORBIFLY MET'MAP TEAM :

Programming & Development : Alexandra Zaïnal
Original concept : Baudouin d'Aumeries
Technical & hardware support : Manuel Goepfert
Assistance : Marc-Olivier Méhu




SOURCES & CREDITS :

   NOAA       Earth
Advisory